Time;durP1;ratioP1;P1;durP2;ratioP2;P2;SDS_P1;SDS_P2;PMS_P1;PMS_P2;Temp;Humidity;BMP_temperature;BMP_pressure;BME280_temperature;BME280_humidity;BME280_pressure;Samples;Min_cycle;Max_cycle;Signal;HPM_P1;HPM_P2
2021/11/04 00:00:28;;;;;;;5.78;0.82;;;20.60;99.90;;;;;;5082473;28;20039;-75
2021/11/04 00:02:56;;;;;;;3.13;0.63;;;20.70;99.90;;;;;;5084029;28;20027;-76
2021/11/04 00:05:25;;;;;;;1.65;0.50;;;20.80;99.90;;;;;;5087076;28;20163;-77
2021/11/04 00:07:57;;;;;;;3.25;1.10;;;20.80;99.90;;;;;;5085123;28;20101;-81
2021/11/04 00:10:25;;;;;;;4.97;0.82;;;20.80;99.90;;;;;;5081859;28;20522;-77
2021/11/04 00:12:53;;;;;;;3.63;0.75;;;20.80;99.90;;;;;;5082603;28;20166;-78
2021/11/04 00:15:22;;;;;;;3.22;0.93;;;20.90;99.90;;;;;;5077244;28;20036;-78
2021/11/04 00:17:49;;;;;;;2.35;0.73;;;20.90;99.90;;;;;;5083913;28;20085;-76
2021/11/04 00:20:19;;;;;;;1.13;0.55;;;20.80;99.90;;;;;;5075969;28;20062;-75
2021/11/04 00:22:47;;;;;;;3.90;0.77;;;20.90;99.90;;;;;;5081177;28;20028;-74
2021/11/04 00:25:17;;;;;;;1.40;0.60;;;20.90;99.90;;;;;;5077682;28;20050;-81
2021/11/04 00:27:45;;;;;;;2.90;0.75;;;20.90;99.90;;;;;;5078246;28;20054;-78
2021/11/04 00:30:13;;;;;;;5.28;0.90;;;21.00;99.90;;;;;;5088039;28;20020;-76
2021/11/04 00:32:52;;;;;;;4.97;1.05;;;20.90;99.90;;;;;;5079154;28;20085;-76
2021/11/04 00:35:23;;;;;;;3.20;1.10;;;20.80;99.90;;;;;;5061617;28;20028;-76
2021/11/04 00:38:11;;;;;;;7.25;1.00;;;20.80;99.90;;;;;;5073999;28;20036;-78
2021/11/04 00:41:14;;;;;;;4.13;1.10;;;20.70;99.90;;;;;;5064367;28;20028;-75
2021/11/04 00:43:48;;;;;;;5.07;1.20;;;20.80;99.90;;;;;;5083820;28;20100;-73
2021/11/04 00:46:18;;;;;;;7.30;1.42;;;20.90;99.90;;;;;;5086373;28;20036;-75
2021/11/04 00:48:45;;;;;;;6.03;1.05;;;20.90;99.90;;;;;;5063461;28;20518;-74
2021/11/04 00:51:17;;;;;;;4.50;1.30;;;21.00;99.90;;;;;;5085026;28;20036;-77
2021/11/04 00:53:48;;;;;;;3.47;1.00;;;21.10;99.90;;;;;;5064494;28;20032;-75
2021/11/04 00:56:22;;;;;;;3.15;1.85;;;21.20;99.90;;;;;;5081761;28;20028;-74
2021/11/04 00:58:50;;;;;;;3.95;1.95;;;21.20;99.90;;;;;;5082606;28;20117;-75
2021/11/04 01:01:29;;;;;;;6.00;1.50;;;21.00;99.90;;;;;;5074006;28;20399;-74
2021/11/04 01:04:01;;;;;;;6.13;1.50;;;21.20;99.90;;;;;;5079128;28;20095;-74
2021/11/04 01:06:30;;;;;;;9.77;2.22;;;21.30;99.90;;;;;;5062159;28;20475;-74
2021/11/04 01:08:57;;;;;;;4.03;1.48;;;21.30;99.90;;;;;;5050065;28;20483;-75
2021/11/04 01:11:26;;;;;;;3.95;1.80;;;21.40;99.90;;;;;;5067379;28;20040;-77
2021/11/04 01:13:54;;;;;;;2.15;1.83;;;21.40;99.90;;;;;;5082477;28;20490;-76
2021/11/04 01:16:23;;;;;;;3.78;1.63;;;21.40;99.90;;;;;;5063618;28;20024;-76
2021/11/04 01:18:52;;;;;;;4.38;2.10;;;21.50;99.90;;;;;;5061418;28;20028;-78
2021/11/04 01:21:20;;;;;;;4.97;1.40;;;21.40;99.90;;;;;;5048921;28;20516;-75
2021/11/04 01:23:49;;;;;;;3.83;1.55;;;21.50;99.90;;;;;;5083553;28;20028;-78
2021/11/04 01:26:18;;;;;;;2.70;1.23;;;21.40;99.90;;;;;;5065466;28;20067;-76
2021/11/04 01:28:52;;;;;;;4.78;1.63;;;21.30;99.90;;;;;;5060823;28;20036;-77
2021/11/04 01:31:20;;;;;;;4.40;1.48;;;21.30;99.90;;;;;;5067222;28;20263;-76
2021/11/04 01:33:48;;;;;;;4.20;1.40;;;21.40;99.90;;;;;;5066799;28;20090;-75
2021/11/04 01:36:15;;;;;;;5.30;1.30;;;21.60;99.90;;;;;;5057926;28;20901;-76
2021/11/04 01:38:44;;;;;;;7.88;2.75;;;21.70;99.90;;;;;;5061013;28;20043;-76
2021/11/04 01:41:16;;;;;;;5.00;1.65;;;21.70;99.90;;;;;;5060888;28;20514;-75
2021/11/04 01:43:44;;;;;;;4.53;2.40;;;21.60;99.90;;;;;;5057335;28;20045;-75
2021/11/04 01:46:12;;;;;;;2.03;1.55;;;21.40;99.90;;;;;;5059124;28;20095;-76
2021/11/04 01:48:41;;;;;;;8.18;2.75;;;21.30;99.90;;;;;;5061377;28;20024;-77
2021/11/04 01:51:12;;;;;;;4.47;2.75;;;21.20;99.90;;;;;;5060392;28;21010;-74
2021/11/04 01:53:40;;;;;;;2.75;1.95;;;21.20;99.90;;;;;;5060560;28;20095;-76
2021/11/04 01:56:11;;;;;;;5.63;2.40;;;21.30;99.90;;;;;;5062194;28;20098;-74
2021/11/04 01:58:41;;;;;;;9.73;3.03;;;21.40;99.90;;;;;;5045268;28;20124;-74
2021/11/04 02:01:09;;;;;;;7.53;3.03;;;21.70;99.90;;;;;;5056527;28;20033;-76
2021/11/04 02:04:07;;;;;;;8.68;3.42;;;21.60;99.90;;;;;;5060174;28;20360;-76
2021/11/04 02:06:46;;;;;;;6.85;2.45;;;21.60;99.90;;;;;;5056301;28;20545;-75
2021/11/04 02:09:33;;;;;;;6.70;2.63;;;21.60;99.90;;;;;;5057891;28;20021;-73
2021/11/04 02:12:34;;;;;;;4.55;2.40;;;21.40;99.90;;;;;;5058175;28;20077;-74
2021/11/04 02:15:08;;;;;;;4.20;2.67;;;21.20;99.90;;;;;;5059644;28;20074;-73
2021/11/04 02:17:37;;;;;;;5.13;2.63;;;21.20;99.90;;;;;;5069322;28;20070;-74
2021/11/04 02:20:07;;;;;;;5.07;2.58;;;21.20;99.90;;;;;;5061122;28;20043;-74
2021/11/04 02:23:03;;;;;;;6.00;3.22;;;21.30;99.90;;;;;;5062263;28;20017;-74
2021/11/04 02:25:31;;;;;;;;;;;21.50;99.90;;;;;;5030996;28;20052;-73
2021/11/04 02:28:10;;;;;;;5.50;3.38;;;21.30;99.90;;;;;;5059904;28;19910;-74
2021/11/04 02:30:42;;;;;;;9.77;3.50;;;21.30;99.90;;;;;;5057484;28;20067;-74
2021/11/04 02:33:17;;;;;;;8.77;2.33;;;21.20;99.90;;;;;;5047525;28;20459;-74
2021/11/04 02:35:49;;;;;;;9.38;4.10;;;21.10;99.90;;;;;;5061266;28;20024;-73
2021/11/04 02:38:20;;;;;;;4.70;2.33;;;21.10;99.90;;;;;;5052654;28;20033;-72
2021/11/04 02:40:48;;;;;;;8.75;2.88;;;21.00;99.90;;;;;;5056246;28;20380;-75
2021/11/04 02:43:21;;;;;;;5.03;2.67;;;21.00;99.90;;;;;;5058963;28;20024;-73
2021/11/04 02:45:50;;;;;;;7.28;3.05;;;21.00;99.90;;;;;;5054129;28;20113;-74
2021/11/04 02:48:19;;;;;;;10.15;2.40;;;21.10;99.90;;;;;;5063767;28;20447;-76
2021/11/04 02:50:53;;;;;;;8.50;3.17;;;21.10;99.90;;;;;;5055407;28;20374;-71
2021/11/04 02:53:26;;;;;;;7.28;3.42;;;21.20;99.90;;;;;;5045210;28;20051;-73
2021/11/04 02:55:55;;;;;;;7.50;4.03;;;21.20;99.90;;;;;;5060158;28;20024;-76
2021/11/04 02:58:22;;;;;;;6.85;3.78;;;21.00;99.90;;;;;;5061452;28;20028;-74
2021/11/04 03:00:55;;;;;;;6.40;3.97;;;21.00;99.90;;;;;;5061838;28;20703;-74
2021/11/04 03:03:26;;;;;;;8.23;5.47;;;20.90;99.90;;;;;;5063805;28;20043;-75
2021/11/04 03:06:02;;;;;;;7.57;5.80;;;20.80;99.90;;;;;;5063791;28;20044;-76
2021/11/04 03:08:31;;;;;;;12.85;5.95;;;20.60;99.90;;;;;;5059761;28;20675;-75
2021/11/04 03:10:58;;;;;;;8.50;5.50;;;20.50;99.90;;;;;;5058023;28;20527;-75
2021/11/04 03:13:25;;;;;;;8.25;5.57;;;20.40;99.90;;;;;;5058230;28;20025;-75
2021/11/04 03:15:58;;;;;;;14.55;6.35;;;20.40;99.90;;;;;;5061190;28;20426;-75
2021/11/04 03:18:27;;;;;;;14.32;5.90;;;20.50;99.90;;;;;;5060305;28;20537;-74
2021/11/04 03:20:55;;;;;;;7.55;5.78;;;20.40;99.90;;;;;;5061864;28;20436;-75
2021/11/04 03:23:23;;;;;;;7.40;4.93;;;20.40;99.90;;;;;;5057347;28;20535;-75
2021/11/04 03:25:52;;;;;;;9.13;4.45;;;20.40;99.90;;;;;;5056273;28;20431;-76
2021/11/04 03:28:20;;;;;;;5.07;3.08;;;20.40;99.90;;;;;;5057115;28;20035;-72
2021/11/04 03:30:48;;;;;;;8.60;3.88;;;20.40;99.90;;;;;;5072687;28;20399;-72
2021/11/04 03:33:16;;;;;;;6.22;3.65;;;20.50;99.90;;;;;;5070029;28;20050;-73
2021/11/04 03:35:44;;;;;;;6.70;3.53;;;20.40;99.90;;;;;;5078841;28;20102;-77
2021/11/04 03:38:13;;;;;;;6.45;4.28;;;20.50;99.90;;;;;;5083467;28;20020;-73
2021/11/04 03:40:42;;;;;;;4.05;3.00;;;20.60;99.90;;;;;;5059416;28;20445;-74
2021/11/04 03:43:11;;;;;;;7.82;5.00;;;20.80;99.90;;;;;;5079013;28;20046;-74
2021/11/04 03:45:40;;;;;;;7.97;5.00;;;20.80;99.90;;;;;;5077610;28;20599;-73
2021/11/04 03:48:08;;;;;;;8.32;4.93;;;20.80;99.90;;;;;;5077116;28;20105;-73
2021/11/04 03:50:37;;;;;;;6.07;4.32;;;20.60;99.90;;;;;;5076519;28;20056;-73
2021/11/04 03:53:05;;;;;;;7.18;4.43;;;20.60;99.90;;;;;;5082322;28;20482;-76
2021/11/04 03:55:33;;;;;;;10.05;5.13;;;20.50;99.90;;;;;;5081801;28;20036;-75
2021/11/04 03:58:01;;;;;;;7.88;4.32;;;20.50;99.90;;;;;;5080479;28;20040;-71
2021/11/04 04:00:29;;;;;;;6.82;3.67;;;20.40;99.90;;;;;;5073425;28;20534;-74
2021/11/04 04:02:56;;;;;;;10.20;3.67;;;20.40;99.90;;;;;;5078203;28;20035;-73
2021/11/04 04:05:33;;;;;;;7.80;4.38;;;20.40;99.90;;;;;;5079825;28;20090;-73
2021/11/04 04:08:02;;;;;;;6.05;3.78;;;20.40;99.90;;;;;;5082645;28;21845;-72
2021/11/04 04:10:32;;;;;;;9.50;4.30;;;20.50;99.90;;;;;;5081548;28;20157;-73
2021/11/04 04:13:01;;;;;;;8.70;3.95;;;20.60;99.90;;;;;;5076480;28;20391;-74
2021/11/04 04:15:29;;;;;;;7.57;4.18;;;20.60;99.90;;;;;;5082105;28;20496;-74
2021/11/04 04:17:56;;;;;;;7.55;4.30;;;20.60;99.90;;;;;;5081697;28;20084;-76
2021/11/04 04:20:25;;;;;;;10.05;5.50;;;20.60;99.90;;;;;;5082004;28;20024;-74
2021/11/04 04:22:53;;;;;;;8.57;4.80;;;20.60;99.90;;;;;;5063575;28;20093;-73
2021/11/04 04:25:20;;;;;;;6.60;4.70;;;20.70;99.90;;;;;;5080102;28;20047;-73
2021/11/04 04:27:48;;;;;;;6.93;4.25;;;20.80;99.90;;;;;;5085958;28;20060;-74
2021/11/04 04:30:15;;;;;;;5.15;3.80;;;20.90;99.90;;;;;;5082156;28;20767;-75
2021/11/04 04:32:43;;;;;;;6.72;4.65;;;21.10;99.90;;;;;;5082127;28;20039;-73
2021/11/04 04:35:10;;;;;;;4.72;3.28;;;21.20;99.90;;;;;;5076172;28;20033;-75
2021/11/04 04:37:37;;;;;;;6.32;3.88;;;21.40;99.90;;;;;;5087423;28;20024;-75
2021/11/04 04:40:05;;;;;;;9.52;6.13;;;21.50;99.90;;;;;;5086982;28;20044;-73
2021/11/04 04:42:33;;;;;;;10.68;6.00;;;21.70;99.90;;;;;;5082369;28;20135;-72
2021/11/04 04:45:00;;;;;;;10.60;6.05;;;21.80;99.90;;;;;;5065147;28;20067;-73
2021/11/04 04:47:27;;;;;;;9.75;5.80;;;21.90;99.90;;;;;;5080662;28;20129;-74
2021/11/04 04:49:58;;;;;;;5.45;4.75;;;22.00;99.90;;;;;;5082553;28;20020;-75
2021/11/04 04:52:27;;;;;;;6.53;5.80;;;22.00;99.90;;;;;;5080874;28;20086;-75
2021/11/04 04:54:55;;;;;;;5.95;4.82;;;22.00;99.90;;;;;;5083278;28;20032;-76
2021/11/04 04:57:23;;;;;;;9.15;5.15;;;21.90;99.90;;;;;;5078979;28;20017;-72
2021/11/04 04:59:59;;;;;;;7.85;5.80;;;21.90;99.90;;;;;;5083761;28;20032;-75
2021/11/04 05:02:28;;;;;;;4.30;3.83;;;21.90;99.90;;;;;;5080491;28;20028;-75
2021/11/04 05:04:55;;;;;;;8.73;4.90;;;21.90;99.90;;;;;;5084436;28;20048;-76
2021/11/04 05:07:23;;;;;;;7.40;4.53;;;21.90;99.90;;;;;;5081636;28;20028;-73
2021/11/04 05:09:50;;;;;;;8.20;4.10;;;21.90;99.90;;;;;;5084396;28;20028;-73
2021/11/04 05:12:17;;;;;;;12.95;6.18;;;21.80;99.90;;;;;;5075740;28;20013;-74
2021/11/04 05:14:45;;;;;;;10.68;4.88;;;21.80;99.90;;;;;;5082254;28;20098;-76
2021/11/04 05:17:13;;;;;;;9.52;5.40;;;21.80;99.90;;;;;;5080380;28;20028;-73
2021/11/04 05:19:41;;;;;;;11.55;4.40;;;21.70;99.90;;;;;;5078524;28;20028;-74
2021/11/04 05:22:08;;;;;;;10.05;4.07;;;21.60;99.90;;;;;;5068014;28;20040;-74
2021/11/04 05:24:36;;;;;;;5.57;3.45;;;21.60;99.90;;;;;;5078591;28;20170;-75
2021/11/04 05:27:05;;;;;;;6.13;3.00;;;21.60;99.90;;;;;;5081009;28;20107;-74
2021/11/04 05:29:33;;;;;;;7.18;2.83;;;21.70;99.90;;;;;;5081390;28;20035;-74
2021/11/04 05:32:06;;;;;;;3.50;2.50;;;21.60;99.90;;;;;;5067472;28;20474;-74
2021/11/04 05:34:35;;;;;;;4.75;3.22;;;21.60;99.90;;;;;;5081091;28;20073;-76
2021/11/04 05:37:03;;;;;;;5.90;3.80;;;21.60;99.90;;;;;;5079649;28;20114;-76
2021/11/04 05:39:31;;;;;;;5.93;4.55;;;21.60;99.90;;;;;;5081505;28;20441;-72
2021/11/04 05:41:58;;;;;;;4.20;2.85;;;21.50;99.90;;;;;;5077072;28;20749;-73
2021/11/04 05:44:26;;;;;;;7.35;3.03;;;21.40;99.90;;;;;;5062781;28;20033;-73
2021/11/04 05:46:54;;;;;;;3.53;1.42;;;21.20;99.90;;;;;;5083289;28;20630;-73
2021/11/04 05:49:21;;;;;;;3.25;1.80;;;21.10;99.90;;;;;;5081448;28;20024;-74
2021/11/04 05:51:49;;;;;;;3.50;1.30;;;21.10;99.90;;;;;;5077078;28;20032;-75
2021/11/04 05:54:16;;;;;;;1.38;1.15;;;21.20;99.90;;;;;;5075244;28;20557;-74
2021/11/04 05:56:44;;;;;;;5.40;2.25;;;21.10;99.90;;;;;;5077388;28;20054;-75
2021/11/04 05:59:11;;;;;;;4.88;1.08;;;21.00;99.90;;;;;;5066992;28;20492;-73
2021/11/04 06:01:39;;;;;;;1.15;0.52;;;21.00;99.90;;;;;;5079098;28;20081;-73
2021/11/04 06:04:06;;;;;;;4.22;0.77;;;21.10;99.90;;;;;;5082501;28;20025;-73
2021/11/04 06:06:33;;;;;;;4.75;0.85;;;21.10;99.90;;;;;;5079955;28;20016;-74
2021/11/04 06:09:01;;;;;;;3.13;0.60;;;21.10;99.90;;;;;;5080656;28;20020;-73
2021/11/04 06:11:28;;;;;;;1.10;0.40;;;21.10;99.90;;;;;;5081934;28;20153;-74
2021/11/04 06:13:56;;;;;;;1.98;0.60;;;21.20;99.90;;;;;;5081911;28;20020;-74
2021/11/04 06:16:23;;;;;;;0.82;0.40;;;21.30;99.90;;;;;;5080380;28;20035;-74
2021/11/04 06:18:52;;;;;;;3.42;0.70;;;21.30;99.90;;;;;;5078920;28;20024;-75
2021/11/04 06:21:20;;;;;;;3.08;0.40;;;21.40;99.90;;;;;;5077870;28;20412;-74
2021/11/04 06:23:47;;;;;;;3.88;0.68;;;21.30;99.90;;;;;;5078013;28;20024;-74
2021/11/04 06:26:15;;;;;;;2.15;0.50;;;21.30;99.90;;;;;;5073885;28;21328;-74
2021/11/04 06:28:43;;;;;;;3.42;0.98;;;21.20;99.90;;;;;;5077848;28;20032;-73
2021/11/04 06:31:11;;;;;;;0.85;0.60;;;21.10;99.90;;;;;;5075729;28;20126;-72
2021/11/04 06:33:38;;;;;;;3.03;0.93;;;20.90;99.90;;;;;;5078740;28;20060;-74
2021/11/04 06:36:05;;;;;;;3.20;0.57;;;20.90;99.90;;;;;;5078924;28;20273;-75
2021/11/04 06:38:34;;;;;;;4.05;0.50;;;20.80;99.90;;;;;;5075935;28;20372;-72
2021/11/04 06:41:02;;;;;;;1.48;0.50;;;20.80;99.90;;;;;;5079408;28;20027;-75
2021/11/04 06:43:35;;;;;;;2.97;0.50;;;20.80;99.90;;;;;;5077362;28;20101;-73
2021/11/04 06:46:03;;;;;;;9.57;1.05;;;20.80;99.90;;;;;;5079582;28;20028;-72
2021/11/04 06:48:49;;;;;;;1.77;0.65;;;20.80;99.90;;;;;;5081246;28;20142;-72
2021/11/04 06:51:22;;;;;;;4.70;1.23;;;20.80;99.90;;;;;;5084089;28;20360;-71
2021/11/04 06:53:58;;;;;;;3.20;0.70;;;20.80;99.90;;;;;;5078947;28;20479;-71
2021/11/04 06:56:26;;;;;;;1.65;0.57;;;20.70;99.90;;;;;;5077649;28;20040;-72
2021/11/04 06:58:55;;;;;;;5.38;0.93;;;20.60;99.90;;;;;;5079786;28;20070;-72
2021/11/04 07:01:23;;;;;;;4.68;1.35;;;20.60;99.90;;;;;;5076920;28;20024;-72
2021/11/04 07:04:11;;;;;;;3.65;0.90;;;20.50;99.90;;;;;;5066819;28;20566;-72
2021/11/04 07:06:48;;;;;;;1.67;0.93;;;20.50;99.90;;;;;;5063266;28;20039;-71
2021/11/04 07:09:15;;;;;;;3.20;0.50;;;20.50;99.90;;;;;;5061689;28;20503;-72
2021/11/04 07:11:43;;;;;;;4.43;1.00;;;20.50;99.90;;;;;;5057522;28;20039;-74
2021/11/04 07:14:11;;;;;;;3.35;0.68;;;20.50;99.90;;;;;;5061822;28;20400;-74
2021/11/04 07:16:41;;;;;;;4.88;1.10;;;20.50;99.90;;;;;;5063854;28;20036;-74
2021/11/04 07:19:09;;;;;;;2.75;1.00;;;20.60;99.90;;;;;;5067120;28;20024;-74
2021/11/04 07:21:44;;;;;;;2.30;1.13;;;20.60;99.90;;;;;;5066286;28;20049;-75
2021/11/04 07:24:21;;;;;;;3.58;0.70;;;20.50;99.90;;;;;;5060516;28;20032;-74
2021/11/04 07:26:52;;;;;;;5.32;0.60;;;20.40;99.90;;;;;;5065619;28;20704;-74
2021/11/04 07:29:26;;;;;;;6.22;0.73;;;20.30;99.90;;;;;;5065338;28;20032;-75
2021/11/04 07:31:54;;;;;;;3.28;0.73;;;20.40;99.90;;;;;;5075933;28;20036;-73
2021/11/04 07:34:25;;;;;;;2.72;0.88;;;20.40;99.90;;;;;;5077835;28;20052;-73
2021/11/04 07:36:54;;;;;;;2.85;1.10;;;20.50;99.90;;;;;;5077963;28;20078;-73
2021/11/04 07:39:22;;;;;;;1.52;0.80;;;20.50;99.90;;;;;;5071804;28;20023;-74
2021/11/04 07:41:50;;;;;;;3.30;0.77;;;20.40;99.90;;;;;;5057726;28;20419;-73
2021/11/04 07:44:17;;;;;;;1.58;0.55;;;20.40;99.90;;;;;;5054512;28;20359;-74
2021/11/04 07:46:44;;;;;;;1.35;0.60;;;20.40;99.90;;;;;;5074278;28;20398;-74
2021/11/04 07:49:12;;;;;;;3.30;0.85;;;20.40;99.90;;;;;;5079140;28;20013;-74
2021/11/04 07:51:40;;;;;;;1.42;0.60;;;20.40;99.90;;;;;;5075435;28;20467;-75
2021/11/04 07:54:08;;;;;;;2.65;0.60;;;20.40;99.90;;;;;;5071189;28;20387;-76
2021/11/04 07:56:35;;;;;;;1.98;0.50;;;20.40;99.90;;;;;;5076847;28;20346;-72
2021/11/04 07:59:03;;;;;;;4.47;1.33;;;20.40;99.90;;;;;;5081334;28;20401;-70
2021/11/04 08:01:30;;;;;;;3.17;0.70;;;20.40;99.90;;;;;;5080064;28;20032;-72
2021/11/04 08:03:57;;;;;;;1.67;0.60;;;20.30;99.90;;;;;;5082083;28;20028;-72
2021/11/04 08:06:25;;;;;;;2.17;0.35;;;20.20;99.90;;;;;;5077732;28;20060;-73
2021/11/04 08:08:52;;;;;;;1.27;0.47;;;20.20;99.90;;;;;;5074677;28;20075;-71
2021/11/04 08:11:20;;;;;;;1.58;0.73;;;20.00;99.90;;;;;;5073444;28;20051;-72
2021/11/04 08:13:48;;;;;;;1.00;0.60;;;20.00;99.90;;;;;;5073906;28;20129;-73
2021/11/04 08:16:15;;;;;;;3.13;0.93;;;20.00;99.90;;;;;;5081703;28;20032;-72
2021/11/04 08:18:42;;;;;;;1.70;0.65;;;19.80;99.90;;;;;;5063701;28;20371;-73
2021/11/04 08:21:10;;;;;;;2.25;0.55;;;19.70;99.90;;;;;;5067428;28;20028;-72
2021/11/04 08:23:37;;;;;;;2.22;0.40;;;19.60;99.90;;;;;;5066320;28;20028;-72
2021/11/04 08:26:07;;;;;;;2.85;0.60;;;19.50;99.90;;;;;;5071655;28;20425;-73
2021/11/04 08:28:34;;;;;;;1.23;0.68;;;19.40;99.90;;;;;;5045162;28;20032;-73
2021/11/04 08:31:01;;;;;;;3.72;0.80;;;19.20;99.90;;;;;;5066715;28;20024;-73
2021/11/04 08:33:29;;;;;;;1.92;0.70;;;19.20;99.90;;;;;;5063657;28;20041;-72
2021/11/04 08:35:56;;;;;;;4.53;0.75;;;19.10;99.90;;;;;;5070299;28;20035;-73
2021/11/04 08:38:23;;;;;;;0.73;0.60;;;19.10;99.90;;;;;;5063893;28;20136;-72
2021/11/04 08:40:51;;;;;;;1.50;0.70;;;19.00;99.90;;;;;;5065395;28;20033;-72
2021/11/04 08:43:18;;;;;;;3.08;0.90;;;19.00;99.90;;;;;;5064834;28;20133;-72
2021/11/04 08:45:46;;;;;;;3.33;0.90;;;19.00;99.90;;;;;;5064962;28;20067;-72
2021/11/04 08:48:15;;;;;;;2.72;1.15;;;19.00;99.90;;;;;;5064319;28;20031;-72
2021/11/04 08:50:43;;;;;;;2.33;1.10;;;18.90;99.90;;;;;;5065558;28;20035;-71
2021/11/04 08:53:11;;;;;;;1.23;0.60;;;19.00;99.90;;;;;;5066173;28;20550;-72
2021/11/04 08:55:38;;;;;;;4.20;1.63;;;19.00;99.90;;;;;;5065694;28;20031;-72
2021/11/04 08:58:07;;;;;;;3.20;2.35;;;19.10;99.90;;;;;;5063288;28;20067;-72
2021/11/04 09:00:34;;;;;;;6.07;1.48;;;19.10;99.90;;;;;;5065889;28;20497;-70
2021/11/04 09:03:02;;;;;;;4.97;1.45;;;19.10;99.90;;;;;;5064135;28;20082;-73
2021/11/04 09:05:29;;;;;;;2.97;1.17;;;19.00;99.90;;;;;;5065117;28;20454;-73
2021/11/04 09:07:57;;;;;;;2.60;1.02;;;18.90;99.90;;;;;;5064482;28;20058;-71
2021/11/04 09:10:26;;;;;;;2.53;1.33;;;18.90;99.90;;;;;;5068167;28;20158;-69
2021/11/04 09:12:54;;;;;;;3.35;1.80;;;18.80;99.90;;;;;;5064179;28;20051;-75
2021/11/04 09:15:22;;;;;;;2.58;1.00;;;18.70;99.90;;;;;;5066304;28;20168;-74
2021/11/04 09:17:49;;;;;;;4.18;1.20;;;18.70;99.90;;;;;;5063529;28;20085;-76
2021/11/04 09:20:18;;;;;;;2.15;0.63;;;18.60;99.90;;;;;;5066592;28;20049;-74
2021/11/04 09:22:49;;;;;;;4.38;1.35;;;18.60;99.90;;;;;;5063257;28;20029;-75
2021/11/04 09:25:22;;;;;;;2.67;1.15;;;18.60;99.90;;;;;;5051491;28;20066;-77
2021/11/04 09:27:52;;;;;;;2.28;1.00;;;18.60;99.90;;;;;;5063860;28;20474;-78
2021/11/04 09:30:19;;;;;;;2.50;0.90;;;18.50;99.90;;;;;;5064809;28;20033;-77
2021/11/04 09:32:47;;;;;;;1.48;1.05;;;18.50;99.90;;;;;;5073839;28;20051;-77
2021/11/04 09:35:15;;;;;;;2.75;1.20;;;18.50;99.90;;;;;;5071440;28;20938;-78
2021/11/04 09:37:43;;;;;;;2.17;0.98;;;18.50;99.90;;;;;;5063236;28;20043;-73
2021/11/04 09:40:12;;;;;;;2.50;1.23;;;18.50;99.90;;;;;;5065538;28;20981;-76
2021/11/04 09:42:40;;;;;;;4.18;1.50;;;18.50;99.90;;;;;;5063700;28;20467;-80
2021/11/04 09:45:08;;;;;;;2.47;1.85;;;18.50;99.90;;;;;;5063593;28;20115;-76
2021/11/04 09:47:35;;;;;;;3.15;1.50;;;18.50;99.90;;;;;;5063636;28;20020;-77
2021/11/04 09:50:11;;;;;;;4.10;1.65;;;18.50;99.90;;;;;;5061223;28;20020;-75
2021/11/04 09:52:41;;;;;;;5.40;2.15;;;18.50;99.90;;;;;;5062746;28;20086;-80
2021/11/04 09:55:17;;;;;;;8.50;2.63;;;18.50;99.90;;;;;;5076390;28;20658;-75
2021/11/04 09:57:47;;;;;;;2.17;1.98;;;18.50;99.90;;;;;;5063587;28;20036;-72
2021/11/04 10:00:15;;;;;;;3.45;1.83;;;18.50;99.90;;;;;;5050727;28;20036;-74
2021/11/04 10:02:44;;;;;;;3.30;1.80;;;18.50;99.90;;;;;;5079014;28;20064;-79
2021/11/04 10:05:16;;;;;;;3.40;1.40;;;18.50;99.90;;;;;;5080470;28;20398;-79
2021/11/04 10:07:50;;;;;;;2.10;1.92;;;18.50;99.90;;;;;;5086945;28;20040;-83
2021/11/04 10:10:20;;;;;;;3.72;2.05;;;18.50;99.90;;;;;;5076490;28;20558;-77
2021/11/04 10:13:05;;;;;;;4.13;2.63;;;18.50;99.90;;;;;;5075516;28;20031;-81
2021/11/04 10:15:34;;;;;;;5.22;3.03;;;18.50;99.90;;;;;;5066785;28;20028;-75
2021/11/04 10:18:22;;;;;;;7.18;2.97;;;18.50;99.90;;;;;;5067995;28;20066;-74
2021/11/04 10:21:00;;;;;;;3.63;2.88;;;18.50;99.90;;;;;;5070163;28;20047;-73
2021/11/04 10:23:39;;;;;;;3.38;2.60;;;18.50;99.90;;;;;;5066445;28;20038;-78
2021/11/04 10:26:09;;;;;;;8.73;3.35;;;18.50;99.90;;;;;;5067795;28;20066;-74
2021/11/04 10:28:38;;;;;;;6.55;4.00;;;18.50;99.90;;;;;;5070124;28;20020;-80
2021/11/04 10:31:12;;;;;;;8.75;2.95;;;18.50;99.90;;;;;;5069825;28;20039;-79
2021/11/04 10:33:45;;;;;;;4.95;2.97;;;18.50;99.90;;;;;;5066041;28;20137;-75
2021/11/04 10:36:17;;;;;;;7.03;2.92;;;18.40;99.90;;;;;;5069517;28;20111;-81
2021/11/04 10:38:53;;;;;;;3.50;2.13;;;18.40;99.90;;;;;;5069153;28;20024;-75
2021/11/04 10:41:31;;;;;;;6.45;2.70;;;18.40;99.90;;;;;;5068737;28;20126;-75
2021/11/04 10:44:20;;;;;;;9.18;3.13;;;18.40;99.90;;;;;;5063901;28;20090;-76
2021/11/04 10:46:54;;;;;;;9.90;3.45;;;18.30;99.90;;;;;;5064832;28;20032;-75
2021/11/04 10:49:23;;;;;;;7.03;3.13;;;18.20;99.90;;;;;;5061922;28;20031;-78
2021/11/04 10:52:07;;;;;;;3.85;2.38;;;18.20;99.90;;;;;;5062923;28;20395;-76
2021/11/04 10:54:43;;;;;;;7.13;2.85;;;18.10;99.90;;;;;;5068439;28;20029;-77
2021/11/04 10:57:11;;;;;;;8.68;2.58;;;18.10;99.90;;;;;;5067538;28;20408;-79
2021/11/04 10:59:48;;;;;;;7.18;3.20;;;18.10;99.90;;;;;;5063838;28;20064;-78
2021/11/04 11:02:21;;;;;;;5.43;2.90;;;18.10;99.90;;;;;;5074307;28;20032;-78
2021/11/04 11:04:48;;;;;;;7.00;3.00;;;18.10;99.90;;;;;;5077017;28;20028;-72
2021/11/04 11:07:16;;;;;;;6.45;3.45;;;18.20;99.90;;;;;;5068936;28;20031;-74
2021/11/04 11:09:44;;;;;;;8.68;4.03;;;18.10;99.90;;;;;;5064496;28;20027;-73
2021/11/04 11:12:11;;;;;;;5.63;3.55;;;18.10;99.90;;;;;;5074067;28;20024;-77
2021/11/04 11:14:40;;;;;;;5.45;3.80;;;18.10;99.90;;;;;;5078625;28;20052;-74
2021/11/04 11:17:09;;;;;;;7.20;3.78;;;18.10;99.90;;;;;;5078802;28;20024;-78
2021/11/04 11:19:55;;;;;;;8.18;4.35;;;18.10;99.90;;;;;;5074746;28;20441;-72
2021/11/04 11:22:24;;;;;;;6.35;4.03;;;18.10;99.90;;;;;;5081951;28;20411;-72
2021/11/04 11:24:51;;;;;;;7.68;4.70;;;18.10;99.90;;;;;;5082095;28;20028;-72
2021/11/04 11:27:24;;;;;;;4.60;3.78;;;18.10;99.90;;;;;;5075991;28;20032;-71
2021/11/04 11:29:51;;;;;;;8.35;4.38;;;18.00;99.90;;;;;;5077237;28;20028;-72
2021/11/04 11:32:30;;;;;;;5.05;4.13;;;18.00;99.90;;;;;;5077650;28;20103;-71
2021/11/04 11:35:20;;;;;;;5.35;3.95;;;17.90;99.90;;;;;;5075156;28;20078;-71
2021/11/04 11:37:56;;;;;;;5.85;3.83;;;17.90;99.90;;;;;;5074231;28;20088;-71
2021/11/04 11:40:29;;;;;;;11.73;4.50;;;17.80;99.90;;;;;;5075791;28;20279;-76
2021/11/04 11:42:58;;;;;;;6.65;4.57;;;17.80;99.90;;;;;;5078317;28;20039;-73
2021/11/04 11:45:31;;;;;;;6.10;3.97;;;17.80;99.90;;;;;;5081858;28;20051;-76
2021/11/04 11:48:19;;;;;;;6.07;3.95;;;17.80;99.90;;;;;;5075733;28;20024;-70
2021/11/04 11:50:49;;;;;;;3.88;3.47;;;17.80;99.90;;;;;;5078210;28;20115;-73
2021/11/04 11:53:28;;;;;;;6.35;3.33;;;17.80;99.90;;;;;;5079174;28;20016;-77
2021/11/04 11:55:59;;;;;;;3.22;2.90;;;17.70;99.90;;;;;;5093098;28;20046;-82
2021/11/04 11:58:33;;;;;;;5.57;2.40;;;17.60;99.90;;;;;;5100764;28;20083;-69
2021/11/04 12:01:00;;;;;;;3.85;1.75;;;17.60;99.90;;;;;;5079614;28;20043;-75
2021/11/04 12:03:37;;;;;;;3.55;2.10;;;17.50;99.90;;;;;;5075141;28;20143;-74
2021/11/04 12:06:16;;;;;;;4.05;2.08;;;17.50;99.90;;;;;;5080402;28;20064;-79
2021/11/04 12:08:50;;;;;;;2.00;1.70;;;17.40;99.90;;;;;;5078304;28;20056;-75
2021/11/04 12:11:42;;;;;;;4.68;2.15;;;17.40;99.90;;;;;;5077064;28;20128;-78
2021/11/04 12:14:24;;;;;;;2.92;1.63;;;17.40;99.90;;;;;;5081275;28;20522;-78
2021/11/04 12:17:01;;;;;;;2.92;1.38;;;17.40;99.90;;;;;;5080929;28;20042;-75
2021/11/04 12:19:38;;;;;;;1.85;0.95;;;17.30;99.90;;;;;;5077287;28;20024;-75
2021/11/04 12:22:30;;;;;;;1.90;0.95;;;17.30;99.90;;;;;;5076793;28;20099;-75
2021/11/04 12:24:58;;;;;;;2.35;1.17;;;17.20;99.90;;;;;;5067275;28;20102;-81
2021/11/04 12:27:30;;;;;;;2.08;1.30;;;17.20;99.90;;;;;;5078451;28;20458;-75
2021/11/04 12:30:10;;;;;;;1.95;1.20;;;17.20;99.90;;;;;;5078947;28;20463;-77
2021/11/04 12:32:37;;;;;;;1.70;0.93;;;17.20;99.90;;;;;;5079252;28;21576;-76
2021/11/04 12:35:05;;;;;;;1.63;0.80;;;17.20;99.90;;;;;;5082404;28;20100;-82
2021/11/04 12:37:34;;;;;;;2.30;1.20;;;17.20;99.90;;;;;;5086805;28;20024;-79
2021/11/04 12:40:07;;;;;;;1.10;0.88;;;17.20;99.90;;;;;;5087752;28;20545;-78
2021/11/04 12:42:34;;;;;;;1.80;0.80;;;17.20;99.90;;;;;;5094556;28;20107;-78
2021/11/04 12:45:02;;;;;;;1.83;1.02;;;17.20;99.90;;;;;;5096391;28;20028;-79
2021/11/04 12:47:30;;;;;;;4.57;1.23;;;17.20;99.90;;;;;;5055025;28;20028;-78
2021/11/04 12:49:57;;;;;;;1.50;0.70;;;17.20;99.90;;;;;;5076221;28;20078;-76
2021/11/04 12:52:27;;;;;;;2.20;1.35;;;17.20;99.90;;;;;;5075552;28;20058;-76
2021/11/04 12:54:56;;;;;;;2.78;1.08;;;17.20;99.90;;;;;;5084922;28;20037;-76
2021/11/04 12:57:25;;;;;;;2.08;0.82;;;17.20;99.90;;;;;;5087474;28;20036;-79
2021/11/04 13:00:04;;;;;;;1.80;1.00;;;17.20;99.90;;;;;;5084258;28;20043;-78
2021/11/04 13:02:37;;;;;;;1.17;0.82;;;17.20;99.90;;;;;;5088491;28;20081;-79